Time;durP1;ratioP1;P1;durP2;ratioP2;P2;SDS_P1;SDS_P2;PMS_P1;PMS_P2;Temp;Humidity;BMP_temperature;BMP_pressure;BME280_temperature;BME280_humidity;BME280_pressure;Samples;Min_cycle;Max_cycle;Signal;HPM_P1;HPM_P2
2023/11/05 00:03:25;;;;;;;2.60;2.00;;;10.50;99.90;;;;;;10408399;28;20227;-79
2023/11/05 00:08:28;;;;;;;1.73;1.63;;;10.60;99.90;;;;;;10383238;28;20220;-80
2023/11/05 00:13:30;;;;;;;1.80;1.73;;;10.60;99.90;;;;;;10400605;28;20199;-80
2023/11/05 00:18:32;;;;;;;2.00;1.90;;;10.70;99.90;;;;;;10398679;28;20222;-80
2023/11/05 00:23:35;;;;;;;1.97;1.87;;;10.60;99.90;;;;;;10393507;28;20613;-80
2023/11/05 00:28:37;;;;;;;1.90;1.80;;;10.70;99.90;;;;;;10394358;28;20223;-79
2023/11/05 00:33:39;;;;;;;2.60;1.50;;;10.70;99.90;;;;;;10392431;28;20195;-80
2023/11/05 00:38:42;;;;;;;1.77;1.43;;;10.70;99.90;;;;;;10394546;28;20297;-80
2023/11/05 00:43:44;;;;;;;1.53;1.43;;;10.70;99.90;;;;;;10396114;28;20668;-80
2023/11/05 00:48:46;;;;;;;1.40;1.40;;;10.80;99.90;;;;;;10398249;28;20210;-80
2023/11/05 00:53:49;;;;;;;1.30;1.20;;;10.70;99.90;;;;;;10404001;28;20199;-79
2023/11/05 00:58:51;;;;;;;1.50;1.40;;;10.80;99.90;;;;;;10409043;28;20206;-80
2023/11/05 01:03:53;;;;;;;1.77;1.50;;;10.80;99.90;;;;;;10398373;28;20564;-80
2023/11/05 01:08:56;;;;;;;2.30;1.60;;;10.70;99.90;;;;;;10402405;28;20203;-79
2023/11/05 01:13:58;;;;;;;1.43;1.43;;;10.70;99.90;;;;;;10392912;28;20273;-80
2023/11/05 01:19:00;;;;;;;1.40;1.40;;;10.80;99.90;;;;;;10408049;28;20207;-79
2023/11/05 01:24:03;;;;;;;2.70;1.60;;;10.80;99.90;;;;;;10400458;28;20249;-78
2023/11/05 01:29:06;;;;;;;2.00;1.90;;;10.90;99.90;;;;;;10402557;28;20226;-79
2023/11/05 01:34:08;;;;;;;5.10;3.70;;;10.90;99.90;;;;;;10403400;28;20277;-79
2023/11/05 01:39:11;;;;;;;1.53;1.43;;;10.90;99.90;;;;;;10405328;28;20669;-79
2023/11/05 01:44:13;;;;;;;1.40;1.40;;;10.90;99.90;;;;;;10402078;28;20234;-79
2023/11/05 01:49:15;;;;;;;1.40;1.40;;;10.90;99.90;;;;;;10407585;28;20245;-79
2023/11/05 01:54:18;;;;;;;4.33;1.30;;;10.90;99.90;;;;;;10398564;28;20215;-79
2023/11/05 01:59:20;;;;;;;2.20;1.40;;;11.00;99.90;;;;;;10396005;28;20269;-81
2023/11/05 02:04:23;;;;;;;1.57;1.10;;;10.90;99.90;;;;;;10411087;28;20230;-79
2023/11/05 02:09:26;;;;;;;1.30;1.20;;;11.00;99.90;;;;;;10400939;28;20656;-80
2023/11/05 02:14:28;;;;;;;1.50;1.40;;;11.00;99.90;;;;;;10390381;28;20226;-79
2023/11/05 02:19:30;;;;;;;2.00;1.50;;;11.10;99.90;;;;;;10402899;28;20234;-80
2023/11/05 02:24:33;;;;;;;2.17;1.50;;;11.10;99.90;;;;;;10393255;28;20703;-79
2023/11/05 02:29:35;;;;;;;2.50;2.07;;;11.20;99.90;;;;;;10398825;28;20202;-79
2023/11/05 02:34:37;;;;;;;1.40;1.30;;;11.20;99.90;;;;;;10396697;28;20237;-79
2023/11/05 02:39:40;;;;;;;2.30;1.60;;;11.20;99.90;;;;;;10397671;28;20202;-79
2023/11/05 02:44:42;;;;;;;3.23;1.60;;;11.30;99.90;;;;;;10396446;28;20234;-79
2023/11/05 02:49:44;;;;;;;2.50;1.90;;;11.30;99.90;;;;;;10400347;28;20206;-79
2023/11/05 02:54:48;;;;;;;2.20;1.67;;;11.30;99.90;;;;;;10403461;28;20225;-79
2023/11/05 02:59:50;;;;;;;3.90;1.90;;;11.30;99.90;;;;;;10401698;28;20257;-81
2023/11/05 03:04:57;;;;;;;1.33;1.30;;;11.40;99.90;;;;;;10388729;28;20227;-79
2023/11/05 03:10:00;;;;;;;1.40;1.30;;;11.40;99.90;;;;;;10405265;28;20205;-80
2023/11/05 03:15:02;;;;;;;2.53;1.53;;;11.50;99.90;;;;;;10401120;28;20222;-80
2023/11/05 03:20:06;;;;;;;3.20;1.57;;;11.50;99.90;;;;;;10405903;28;20202;-79
2023/11/05 03:25:11;;;;;;;3.67;1.60;;;11.50;99.90;;;;;;10394888;28;20229;-79
2023/11/05 03:30:13;;;;;;;1.50;1.40;;;11.50;99.90;;;;;;10404575;28;20747;-80
2023/11/05 03:35:15;;;;;;;1.40;1.30;;;11.60;99.90;;;;;;10395226;28;20223;-80
2023/11/05 03:40:19;;;;;;;3.37;1.63;;;11.60;99.90;;;;;;10400136;28;20629;-79
2023/11/05 03:45:21;;;;;;;2.80;1.43;;;11.60;99.90;;;;;;10399219;28;20230;-79
2023/11/05 03:50:23;;;;;;;2.83;1.77;;;11.70;99.90;;;;;;10400341;28;20207;-81
2023/11/05 03:55:27;;;;;;;1.80;1.50;;;11.60;99.90;;;;;;10403302;28;20210;-79
2023/11/05 04:00:29;;;;;;;1.70;1.37;;;11.70;99.90;;;;;;10410233;28;20285;-79
2023/11/05 04:05:31;;;;;;;2.07;1.47;;;11.70;99.90;;;;;;10401283;28;20257;-80
2023/11/05 04:10:34;;;;;;;3.80;1.57;;;11.70;99.90;;;;;;10403166;28;20625;-80
2023/11/05 04:15:36;;;;;;;1.83;1.43;;;11.70;99.90;;;;;;10404598;28;20237;-81
2023/11/05 04:20:37;;;;;;;2.50;1.50;;;11.70;99.90;;;;;;10390446;28;20234;-79
2023/11/05 04:25:41;;;;;;;2.90;1.90;;;11.70;99.90;;;;;;10387848;28;20657;-79
2023/11/05 04:30:42;;;;;;;1.43;1.33;;;11.70;99.70;;;;;;10392074;28;20202;-80
2023/11/05 04:35:44;;;;;;;2.50;1.40;;;11.70;99.80;;;;;;10399494;28;20221;-80
2023/11/05 04:40:47;;;;;;;1.63;1.30;;;11.80;99.90;;;;;;10393607;28;20207;-80
2023/11/05 04:45:49;;;;;;;1.50;1.40;;;11.70;99.90;;;;;;10401220;28;20313;-80
2023/11/05 04:50:51;;;;;;;2.20;1.50;;;11.70;99.90;;;;;;10396557;28;20198;-80
2023/11/05 04:55:54;;;;;;;2.50;1.60;;;11.80;99.90;;;;;;10395657;28;20218;-79
2023/11/05 05:00:56;;;;;;;1.50;1.40;;;11.80;99.90;;;;;;10397501;28;20203;-78
2023/11/05 05:05:58;;;;;;;4.67;2.27;;;11.80;99.90;;;;;;10399105;28;20317;-79
2023/11/05 05:11:01;;;;;;;2.13;1.80;;;11.80;99.90;;;;;;10396973;28;20198;-79
2023/11/05 05:16:06;;;;;;;2.20;1.50;;;11.80;99.90;;;;;;10396128;28;20245;-80
2023/11/05 05:21:08;;;;;;;4.30;1.40;;;11.80;99.90;;;;;;10399884;28;20202;-79
2023/11/05 05:26:11;;;;;;;2.90;1.63;;;11.80;99.90;;;;;;10395904;28;20218;-79
2023/11/05 05:31:12;;;;;;;2.77;1.30;;;11.70;99.90;;;;;;10397889;28;20190;-79
2023/11/05 05:36:14;;;;;;;2.00;1.80;;;11.70;99.90;;;;;;10398745;28;20621;-79
2023/11/05 05:41:17;;;;;;;1.63;1.13;;;11.70;99.90;;;;;;10399595;28;20199;-79
2023/11/05 05:46:19;;;;;;;1.77;1.67;;;11.70;99.90;;;;;;10396914;28;20315;-81
2023/11/05 05:51:23;;;;;;;3.97;1.50;;;11.70;99.90;;;;;;10405726;28;20195;-81
2023/11/05 05:56:27;;;;;;;2.40;1.60;;;11.60;99.90;;;;;;10427785;28;20234;-80
2023/11/05 06:01:29;;;;;;;1.47;1.37;;;11.50;99.90;;;;;;10405854;28;20237;-81
2023/11/05 06:06:31;;;;;;;1.40;1.30;;;11.60;99.90;;;;;;10410519;28;20227;-81
2023/11/05 06:11:34;;;;;;;2.40;1.57;;;11.50;99.90;;;;;;10411574;28;20301;-81
2023/11/05 06:16:36;;;;;;;1.40;1.30;;;11.50;99.90;;;;;;10407757;28;20225;-81
2023/11/05 06:21:38;;;;;;;1.90;1.57;;;11.50;99.90;;;;;;10409529;28;20272;-80
2023/11/05 06:26:44;;;;;;;1.50;1.30;;;11.50;99.90;;;;;;10392020;28;20237;-80
2023/11/05 06:31:45;;;;;;;1.50;1.40;;;11.60;99.90;;;;;;10405649;28;20202;-81
2023/11/05 06:36:55;;;;;;;3.00;1.33;;;11.50;99.90;;;;;;10403507;28;20702;-81
2023/11/05 06:42:00;;;;;;;1.67;1.20;;;11.50;99.90;;;;;;10403617;28;20852;-81
2023/11/05 06:47:01;;;;;;;2.63;1.70;;;11.50;99.90;;;;;;10407016;28;20227;-81
2023/11/05 06:52:03;;;;;;;1.50;1.40;;;11.50;99.90;;;;;;10405681;28;20210;-81
2023/11/05 06:57:07;;;;;;;2.50;1.67;;;11.50;99.90;;;;;;10405148;28;20281;-81
2023/11/05 07:02:10;;;;;;;1.60;1.37;;;11.60;99.90;;;;;;10408464;28;20195;-80
2023/11/05 07:07:12;;;;;;;1.20;1.20;;;11.70;99.90;;;;;;10407437;28;20326;-81
2023/11/05 07:12:15;;;;;;;3.37;1.20;;;11.70;99.90;;;;;;10405147;28;20261;-82
2023/11/05 07:17:17;;;;;;;1.23;1.20;;;11.60;99.90;;;;;;10407256;28;20766;-82
2023/11/05 07:22:19;;;;;;;1.70;1.60;;;11.60;99.90;;;;;;10410204;28;20194;-82
2023/11/05 07:27:22;;;;;;;1.30;1.20;;;11.70;99.90;;;;;;10401122;28;20245;-80
2023/11/05 07:32:24;;;;;;;1.60;1.50;;;11.70;99.90;;;;;;10402799;28;20510;-80
2023/11/05 07:37:27;;;;;;;1.30;1.30;;;11.70;99.90;;;;;;10403233;28;20218;-80
2023/11/05 07:42:30;;;;;;;2.00;1.27;;;11.70;99.90;;;;;;10401712;28;20761;-80
2023/11/05 07:47:32;;;;;;;1.30;1.30;;;11.80;99.90;;;;;;10405039;28;20222;-80
2023/11/05 07:52:34;;;;;;;1.60;1.50;;;11.90;99.90;;;;;;10408412;28;20232;-80
2023/11/05 07:57:38;;;;;;;1.47;1.47;;;12.00;99.90;;;;;;10417797;28;20730;-80
2023/11/05 08:02:40;;;;;;;1.40;1.30;;;12.00;99.90;;;;;;10403069;28;20218;-80
2023/11/05 08:07:42;;;;;;;1.67;1.30;;;12.00;99.90;;;;;;10405178;28;20214;-82
2023/11/05 08:12:45;;;;;;;2.80;1.30;;;12.10;99.90;;;;;;10402275;28;20222;-80
2023/11/05 08:17:47;;;;;;;1.47;1.37;;;12.10;99.90;;;;;;10405897;28;20277;-82
2023/11/05 08:22:48;;;;;;;1.73;1.20;;;12.20;99.90;;;;;;10403167;28;20234;-82
2023/11/05 08:27:53;;;;;;;1.00;1.00;;;12.30;99.90;;;;;;10398662;28;20930;-82
2023/11/05 08:32:56;;;;;;;0.90;0.90;;;12.30;99.90;;;;;;10399263;28;20209;-83
2023/11/05 08:37:58;;;;;;;1.27;1.20;;;12.40;99.90;;;;;;10400467;28;20229;-81
2023/11/05 08:43:01;;;;;;;1.30;1.20;;;12.30;99.90;;;;;;10403758;28;20209;-81
2023/11/05 08:48:04;;;;;;;1.30;1.20;;;12.10;99.90;;;;;;10407961;28;20301;-80
2023/11/05 08:53:06;;;;;;;1.47;1.20;;;12.10;99.90;;;;;;10423223;28;20240;-79
2023/11/05 08:58:09;;;;;;;1.10;1.10;;;12.10;99.90;;;;;;10426986;28;20287;-80
2023/11/05 09:03:12;;;;;;;1.20;1.20;;;12.20;99.90;;;;;;10425612;28;20194;-80
2023/11/05 09:08:14;;;;;;;1.30;1.30;;;12.30;99.90;;;;;;10403200;28;20223;-80
2023/11/05 09:13:19;;;;;;;1.30;1.20;;;12.40;99.90;;;;;;10403553;28;20229;-81
2023/11/05 09:18:21;;;;;;;1.70;1.60;;;12.50;99.90;;;;;;10406098;28;20225;-80
2023/11/05 09:23:23;;;;;;;1.20;1.20;;;12.50;99.90;;;;;;10397413;28;20202;-80
2023/11/05 09:28:26;;;;;;;2.90;1.30;;;12.50;99.90;;;;;;10389653;28;20701;-80
2023/11/05 09:33:28;;;;;;;1.20;1.10;;;12.70;99.90;;;;;;10380534;28;20199;-77
2023/11/05 09:38:30;;;;;;;1.10;1.00;;;12.70;99.90;;;;;;10399121;28;20635;-81
2023/11/05 09:43:34;;;;;;;1.10;1.10;;;13.00;99.90;;;;;;10408238;28;20562;-80
2023/11/05 09:48:35;;;;;;;1.47;1.37;;;13.10;99.90;;;;;;10401757;28;20234;-80
2023/11/05 09:53:37;;;;;;;1.00;1.00;;;13.20;99.90;;;;;;10414343;28;20357;-81
2023/11/05 09:58:41;;;;;;;1.07;1.07;;;13.20;99.90;;;;;;10398620;28;20338;-80
2023/11/05 10:03:43;;;;;;;1.70;1.60;;;13.20;99.90;;;;;;10401843;28;20203;-81
2023/11/05 10:08:44;;;;;;;1.43;1.37;;;13.40;99.90;;;;;;10402684;28;20651;-80
2023/11/05 10:13:51;;;;;;;1.33;1.23;;;13.60;99.90;;;;;;10401715;28;20235;-81
2023/11/05 10:18:54;;;;;;;1.40;1.40;;;13.70;99.90;;;;;;10403261;28;20632;-80
2023/11/05 10:23:56;;;;;;;1.60;1.40;;;13.70;99.90;;;;;;10404366;28;20252;-80
2023/11/05 10:29:00;;;;;;;4.10;1.30;;;13.70;99.90;;;;;;10396760;28;20322;-80
2023/11/05 10:34:04;;;;;;;1.30;1.20;;;13.80;99.90;;;;;;10357546;28;1065198;-81
2023/11/05 10:39:06;;;;;;;2.60;1.40;;;13.80;99.90;;;;;;10380955;28;20266;-80
2023/11/05 10:44:11;;;;;;;1.30;1.20;;;13.80;99.90;;;;;;10397194;28;20717;-80
2023/11/05 10:49:13;;;;;;;1.30;1.30;;;13.70;99.90;;;;;;10403428;28;20204;-81
2023/11/05 10:54:16;;;;;;;1.50;1.40;;;13.50;99.90;;;;;;10404890;28;20214;-80
2023/11/05 10:59:38;;;;;;;1.83;1.83;;;13.20;99.90;;;;;;10410886;28;20269;-81
2023/11/05 11:04:40;;;;;;;2.50;2.40;;;12.90;99.90;;;;;;10397184;28;20231;-80
2023/11/05 11:09:42;;;;;;;2.80;2.70;;;12.70;99.90;;;;;;10402378;28;20580;-80
2023/11/05 11:14:46;;;;;;;2.73;2.60;;;12.60;99.90;;;;;;10377305;28;20328;-79
2023/11/05 11:19:49;;;;;;;2.40;2.30;;;12.40;99.90;;;;;;10390446;28;20230;-80
2023/11/05 11:24:51;;;;;;;3.70;3.60;;;12.30;99.90;;;;;;10391658;28;20288;-80
2023/11/05 11:29:57;;;;;;;3.40;3.30;;;12.30;99.90;;;;;;10394628;28;20661;-80
2023/11/05 11:34:59;;;;;;;3.80;3.70;;;12.20;99.90;;;;;;10383794;28;20225;-79
2023/11/05 11:40:01;;;;;;;3.50;3.40;;;12.20;99.90;;;;;;10388859;28;20235;-80
2023/11/05 11:45:06;;;;;;;3.53;3.43;;;12.20;99.90;;;;;;10389586;28;20222;-81
2023/11/05 11:50:09;;;;;;;3.20;3.00;;;12.30;99.90;;;;;;10389729;28;20290;-81
2023/11/05 11:55:10;;;;;;;3.50;3.30;;;12.30;99.90;;;;;;10394423;28;20222;-78
2023/11/05 12:00:17;;;;;;;2.90;2.80;;;12.40;99.90;;;;;;10385167;28;20196;-79
2023/11/05 12:05:20;;;;;;;2.60;2.50;;;12.50;99.90;;;;;;10392154;28;20649;-79
2023/11/05 12:10:23;;;;;;;2.70;2.60;;;12.50;99.90;;;;;;10378867;28;20421;-79
2023/11/05 12:15:27;;;;;;;2.70;2.60;;;12.60;99.90;;;;;;10386232;28;20629;-80
2023/11/05 12:20:30;;;;;;;2.40;2.30;;;12.60;99.90;;;;;;10376610;28;20242;-80
2023/11/05 12:25:34;;;;;;;2.40;2.30;;;12.70;99.90;;;;;;10387380;28;20250;-80
2023/11/05 12:30:38;;;;;;;2.43;2.33;;;12.70;99.90;;;;;;10385920;28;20694;-80
2023/11/05 12:35:41;;;;;;;1.90;1.80;;;12.70;99.90;;;;;;10385242;28;20285;-80
2023/11/05 12:40:42;;;;;;;2.27;2.17;;;12.70;99.90;;;;;;10386073;28;20213;-80
2023/11/05 12:45:46;;;;;;;1.80;1.80;;;12.70;99.90;;;;;;10387123;28;20230;-80
2023/11/05 12:50:48;;;;;;;1.67;1.57;;;12.80;99.90;;;;;;10393459;28;20547;-80
2023/11/05 12:55:58;;;;;;;3.23;1.57;;;13.00;99.90;;;;;;10384986;28;20219;-80
2023/11/05 13:01:01;;;;;;;1.50;1.50;;;13.20;99.90;;;;;;10389450;28;20194;-80
2023/11/05 13:06:04;;;;;;;1.60;1.60;;;13.40;99.90;;;;;;10389491;28;20227;-80
2023/11/05 13:11:07;;;;;;;1.90;1.80;;;13.50;99.90;;;;;;10391784;28;20213;-80
2023/11/05 13:16:11;;;;;;;2.57;1.70;;;13.50;99.90;;;;;;10391997;28;20241;-80
2023/11/05 13:21:12;;;;;;;1.93;1.40;;;13.60;99.90;;;;;;10395730;28;20581;-78
2023/11/05 13:26:16;;;;;;;1.47;1.40;;;13.60;99.90;;;;;;10394904;28;20587;-79
2023/11/05 13:31:19;;;;;;;1.67;1.57;;;13.50;99.90;;;;;;10398116;28;20287;-79
2023/11/05 13:36:21;;;;;;;1.73;1.67;;;13.50;99.90;;;;;;10410740;28;20226;-80
2023/11/05 13:41:23;;;;;;;1.90;1.80;;;13.50;99.90;;;;;;10408025;28;20213;-80
2023/11/05 13:46:26;;;;;;;2.37;2.27;;;13.40;99.90;;;;;;10413071;28;20258;-80
2023/11/05 13:51:28;;;;;;;2.10;2.00;;;13.30;99.90;;;;;;10400378;28;20272;-80
2023/11/05 13:56:30;;;;;;;2.70;2.50;;;13.20;99.90;;;;;;10408657;28;20227;-81
2023/11/05 14:01:35;;;;;;;2.00;1.90;;;13.20;99.90;;;;;;10409597;28;20207;-81
2023/11/05 14:06:37;;;;;;;2.53;2.43;;;13.00;99.90;;;;;;10407840;28;20247;-79
2023/11/05 14:11:39;;;;;;;2.77;2.60;;;12.90;99.90;;;;;;10409310;28;20195;-78
2023/11/05 14:16:43;;;;;;;2.70;2.60;;;12.80;99.90;;;;;;10406696;28;20215;-79
2023/11/05 14:21:45;;;;;;;2.70;2.50;;;12.70;99.90;;;;;;10382754;28;20234;-78
2023/11/05 14:26:46;;;;;;;2.77;2.57;;;12.60;99.90;;;;;;10399520;28;20227;-79
2023/11/05 14:31:50;;;;;;;2.27;2.17;;;12.60;99.90;;;;;;10400821;28;20256;-79
2023/11/05 14:36:54;;;;;;;2.00;1.90;;;12.60;99.90;;;;;;10400117;28;20273;-78
2023/11/05 14:41:57;;;;;;;2.10;2.00;;;12.50;99.90;;;;;;10380604;28;20208;-80
2023/11/05 14:47:00;;;;;;;2.50;2.40;;;12.60;99.90;;;;;;10381365;28;20276;-78
2023/11/05 14:52:02;;;;;;;1.70;1.70;;;12.60;99.90;;;;;;10379646;28;20679;-80
2023/11/05 14:57:05;;;;;;;1.73;1.63;;;12.60;99.90;;;;;;10386623;28;20215;-79
2023/11/05 15:02:08;;;;;;;2.03;1.93;;;12.70;99.90;;;;;;10374254;28;20231;-77
2023/11/05 15:07:11;;;;;;;1.97;1.90;;;12.60;99.90;;;;;;10370461;28;20767;-78
2023/11/05 15:12:13;;;;;;;2.23;2.00;;;12.60;99.90;;;;;;10369167;28;20265;-79
2023/11/05 15:17:16;;;;;;;2.10;2.00;;;12.60;99.90;;;;;;10372282;28;20273;-77
2023/11/05 15:22:18;;;;;;;2.07;1.90;;;12.60;99.90;;;;;;10371884;28;20207;-78
2023/11/05 15:27:21;;;;;;;2.47;2.37;;;12.50;99.90;;;;;;10373423;28;20234;-78
2023/11/05 15:32:24;;;;;;;2.80;2.60;;;12.50;99.90;;;;;;10373298;28;20203;-79
2023/11/05 15:37:27;;;;;;;2.50;2.40;;;12.40;99.90;;;;;;10372611;28;20285;-79
2023/11/05 15:42:32;;;;;;;2.67;2.47;;;12.40;99.90;;;;;;10378746;28;20203;-77
2023/11/05 15:47:35;;;;;;;2.93;2.83;;;12.30;99.90;;;;;;10368810;28;20235;-79
2023/11/05 15:52:38;;;;;;;2.93;2.63;;;12.20;99.90;;;;;;10371744;28;20257;-77
2023/11/05 15:57:40;;;;;;;3.37;3.20;;;12.10;99.90;;;;;;10370885;28;20211;-79
2023/11/05 16:02:43;;;;;;;3.90;3.67;;;12.00;99.90;;;;;;10370798;28;20230;-78
2023/11/05 16:07:45;;;;;;;3.30;3.10;;;12.00;99.90;;;;;;10371190;28;20273;-79
2023/11/05 16:12:47;;;;;;;3.17;3.07;;;12.00;99.90;;;;;;10370136;28;20215;-77
2023/11/05 16:17:52;;;;;;;3.70;3.50;;;11.90;99.90;;;;;;10383777;28;20269;-77
2023/11/05 16:22:55;;;;;;;3.57;3.30;;;11.90;99.90;;;;;;10366627;28;20302;-78
2023/11/05 16:27:57;;;;;;;3.57;3.37;;;11.90;99.90;;;;;;10369912;28;20227;-80
2023/11/05 16:33:00;;;;;;;3.07;2.97;;;11.80;99.90;;;;;;10365444;28;20206;-79
2023/11/05 16:38:03;;;;;;;3.10;3.00;;;11.80;99.90;;;;;;10368000;28;20226;-79
2023/11/05 16:43:05;;;;;;;3.10;2.90;;;11.70;99.90;;;;;;10372349;28;20229;-78
2023/11/05 16:48:08;;;;;;;2.93;2.83;;;11.60;99.90;;;;;;10367204;28;20226;-78
2023/11/05 16:53:10;;;;;;;3.00;2.90;;;11.60;99.90;;;;;;10367140;28;20201;-78
2023/11/05 16:58:12;;;;;;;3.30;3.00;;;11.60;99.90;;;;;;10365939;28;20215;-79
2023/11/05 17:03:16;;;;;;;2.83;2.73;;;11.50;99.90;;;;;;10365543;28;20199;-78
2023/11/05 17:08:18;;;;;;;2.73;2.63;;;11.40;99.90;;;;;;10363073;28;20231;-77
2023/11/05 17:13:20;;;;;;;2.50;2.40;;;11.40;99.90;;;;;;10367808;28;20251;-78
2023/11/05 17:18:23;;;;;;;2.43;2.33;;;11.40;99.90;;;;;;10364963;28;20227;-78
2023/11/05 17:23:25;;;;;;;2.67;2.47;;;11.40;99.90;;;;;;10365707;28;20203;-77
2023/11/05 17:28:27;;;;;;;3.10;3.00;;;11.30;99.90;;;;;;10365196;28;20233;-77
2023/11/05 17:33:30;;;;;;;2.50;2.30;;;11.30;99.90;;;;;;10362011;28;20273;-76
2023/11/05 17:38:32;;;;;;;2.27;2.10;;;11.40;99.90;;;;;;10369004;28;20231;-79
2023/11/05 17:43:34;;;;;;;2.37;2.23;;;11.40;99.90;;;;;;10374545;28;20233;-78
2023/11/05 17:48:37;;;;;;;1.90;1.80;;;11.40;99.90;;;;;;10367860;28;20755;-77
2023/11/05 17:53:39;;;;;;;3.57;2.20;;;11.40;99.90;;;;;;10370056;28;20667;-79
2023/11/05 17:58:41;;;;;;;2.30;1.70;;;11.40;99.90;;;;;;10383556;28;20212;-78
2023/11/05 18:03:45;;;;;;;2.00;1.90;;;11.50;99.90;;;;;;10373869;28;20199;-79
2023/11/05 18:08:53;;;;;;;2.13;2.03;;;11.50;99.90;;;;;;10366702;28;20234;-79
2023/11/05 18:13:59;;;;;;;3.10;2.57;;;11.50;99.90;;;;;;10367284;28;20273;-77
2023/11/05 18:19:02;;;;;;;2.10;2.00;;;11.50;99.90;;;;;;10367236;28;20227;-77
2023/11/05 18:24:05;;;;;;;2.57;2.47;;;11.40;99.90;;;;;;10370076;28;20672;-78
2023/11/05 18:29:07;;;;;;;2.40;2.27;;;11.50;99.90;;;;;;10377180;28;20278;-76
2023/11/05 18:34:10;;;;;;;2.10;1.87;;;11.50;99.90;;;;;;10370748;28;20219;-77
2023/11/05 18:39:13;;;;;;;2.40;2.30;;;11.50;99.90;;;;;;10366533;28;20572;-78
2023/11/05 18:44:16;;;;;;;2.47;2.27;;;11.60;99.90;;;;;;10355067;28;20839;-77
2023/11/05 18:49:19;;;;;;;2.23;2.13;;;11.60;99.90;;;;;;10353999;28;20231;-77
2023/11/05 18:54:21;;;;;;;2.00;1.80;;;11.70;99.90;;;;;;10363354;28;20318;-78
2023/11/05 18:59:24;;;;;;;2.40;1.97;;;11.60;99.90;;;;;;10361359;28;20213;-78
2023/11/05 19:04:29;;;;;;;1.90;1.80;;;11.60;99.90;;;;;;10349207;28;20974;-77
2023/11/05 19:09:31;;;;;;;2.30;2.10;;;11.60;99.90;;;;;;10345936;28;20219;-78
2023/11/05 19:14:33;;;;;;;1.87;1.60;;;11.50;99.90;;;;;;10364238;28;20286;-77
2023/11/05 19:19:36;;;;;;;1.77;1.67;;;11.50;99.90;;;;;;10365606;28;20215;-77
2023/11/05 19:24:39;;;;;;;3.20;1.90;;;11.50;99.90;;;;;;10345243;28;20705;-77
2023/11/05 19:29:42;;;;;;;2.27;1.67;;;11.50;99.90;;;;;;10348272;28;20298;-77
2023/11/05 19:34:45;;;;;;;1.80;1.63;;;11.40;99.90;;;;;;10364443;28;20239;-77
2023/11/05 19:39:47;;;;;;;1.70;1.60;;;11.40;99.90;;;;;;10349543;28;20629;-77
2023/11/05 19:44:49;;;;;;;1.80;1.70;;;11.30;99.90;;;;;;10364742;28;20621;-77
2023/11/05 19:49:52;;;;;;;1.90;1.80;;;11.20;99.90;;;;;;10343102;28;20311;-77
2023/11/05 19:54:55;;;;;;;2.23;2.10;;;11.20;99.90;;;;;;10359128;28;20223;-76
2023/11/05 19:59:56;;;;;;;1.97;1.87;;;11.20;99.90;;;;;;10360533;28;20228;-77
2023/11/05 20:05:01;;;;;;;2.10;1.93;;;11.10;99.90;;;;;;10357592;28;20305;-77
2023/11/05 20:10:05;;;;;;;2.60;1.97;;;11.20;99.90;;;;;;10358238;28;20222;-78
2023/11/05 20:15:08;;;;;;;3.80;2.70;;;11.10;99.90;;;;;;10361489;28;20636;-78
2023/11/05 20:20:12;;;;;;;3.43;2.50;;;11.10;99.90;;;;;;10363449;28;20286;-78
2023/11/05 20:25:17;;;;;;;2.67;2.40;;;11.10;99.90;;;;;;10362619;28;20227;-78
2023/11/05 20:30:19;;;;;;;2.73;2.50;;;11.10;99.90;;;;;;10362693;28;20219;-78
2023/11/05 20:35:22;;;;;;;3.63;2.40;;;11.10;99.90;;;;;;10364672;28;20242;-80
2023/11/05 20:40:24;;;;;;;3.00;2.63;;;11.00;99.90;;;;;;10368997;28;20203;-80
2023/11/05 20:45:27;;;;;;;2.43;2.30;;;11.00;99.90;;;;;;10364730;28;20222;-80
2023/11/05 20:50:30;;;;;;;2.80;2.30;;;11.00;99.90;;;;;;10364272;28;20270;-78
2023/11/05 20:55:36;;;;;;;2.80;2.50;;;11.10;99.90;;;;;;10367084;28;20242;-80
2023/11/05 21:00:38;;;;;;;2.30;2.10;;;11.10;99.90;;;;;;10388330;28;20629;-80
2023/11/05 21:05:41;;;;;;;2.20;2.00;;;11.10;99.90;;;;;;10358225;28;20226;-81
2023/11/05 21:10:43;;;;;;;2.10;1.90;;;11.00;99.90;;;;;;10351094;28;20281;-81
2023/11/05 21:15:45;;;;;;;3.10;1.93;;;11.00;99.90;;;;;;10365165;28;20642;-80
2023/11/05 21:20:48;;;;;;;2.73;1.90;;;11.10;99.90;;;;;;10366770;28;20195;-81
2023/11/05 21:25:50;;;;;;;2.73;2.53;;;11.10;99.90;;;;;;10374979;28;20216;-81
2023/11/05 21:30:53;;;;;;;3.10;2.30;;;11.10;99.90;;;;;;10375852;28;20219;-80
2023/11/05 21:35:56;;;;;;;1.90;1.80;;;11.10;99.90;;;;;;10361449;28;20223;-81
2023/11/05 21:40:58;;;;;;;2.20;1.80;;;11.20;99.90;;;;;;10374555;28;20203;-79
2023/11/05 21:46:00;;;;;;;2.00;1.87;;;11.20;99.90;;;;;;10377717;28;20214;-80
2023/11/05 21:51:04;;;;;;;2.60;2.40;;;11.20;99.90;;;;;;10379109;28;20215;-80
2023/11/05 21:56:06;;;;;;;2.60;1.93;;;11.20;99.90;;;;;;10379257;28;20285;-80
2023/11/05 22:01:10;;;;;;;1.90;1.80;;;11.30;99.90;;;;;;10377627;28;20677;-79
2023/11/05 22:06:13;;;;;;;1.80;1.70;;;11.30;99.90;;;;;;10376221;28;20265;-81
2023/11/05 22:11:15;;;;;;;1.93;1.73;;;11.30;99.90;;;;;;10374397;28;20227;-80
2023/11/05 22:16:17;;;;;;;3.97;2.23;;;11.30;99.90;;;;;;10377283;28;20219;-80
2023/11/05 22:21:20;;;;;;;2.07;1.87;;;11.30;99.90;;;;;;10373348;28;20231;-80
2023/11/05 22:26:22;;;;;;;2.33;1.93;;;11.20;99.90;;;;;;10373415;28;20709;-80
2023/11/05 22:31:24;;;;;;;4.30;2.90;;;11.20;99.90;;;;;;10371758;28;20226;-79
2023/11/05 22:36:31;;;;;;;2.03;1.93;;;11.10;99.90;;;;;;10367229;28;20238;-80
2023/11/05 22:41:33;;;;;;;1.87;1.67;;;11.20;99.90;;;;;;10372420;28;20656;-80
2023/11/05 22:46:35;;;;;;;2.10;2.00;;;11.20;99.90;;;;;;10372625;28;20292;-79
2023/11/05 22:51:39;;;;;;;2.23;2.03;;;11.10;99.90;;;;;;10366310;28;20207;-79
2023/11/05 22:56:42;;;;;;;3.17;2.90;;;11.10;99.90;;;;;;10366260;28;20293;-79
2023/11/05 23:01:44;;;;;;;3.23;2.90;;;11.00;99.90;;;;;;10367936;28;20612;-79
2023/11/05 23:06:48;;;;;;;2.90;2.70;;;10.80;99.90;;;;;;10364032;28;20223;-80
2023/11/05 23:11:50;;;;;;;3.30;3.10;;;10.70;99.90;;;;;;10366120;28;20227;-79
2023/11/05 23:16:52;;;;;;;6.70;4.00;;;10.60;99.90;;;;;;10371582;28;20281;-80
2023/11/05 23:21:55;;;;;;;5.53;5.13;;;10.50;99.90;;;;;;10357067;28;20588;-79
2023/11/05 23:26:57;;;;;;;5.20;5.00;;;10.40;99.90;;;;;;10362584;28;20215;-78
2023/11/05 23:31:59;;;;;;;5.13;4.87;;;10.40;99.90;;;;;;10374879;28;20260;-80
2023/11/05 23:37:03;;;;;;;6.27;5.87;;;10.30;99.90;;;;;;10371821;28;20724;-80
2023/11/05 23:42:05;;;;;;;4.80;4.70;;;10.20;99.90;;;;;;10382314;28;20211;-80
2023/11/05 23:47:07;;;;;;;5.40;5.10;;;10.20;99.90;;;;;;10372498;28;20723;-80
2023/11/05 23:52:10;;;;;;;5.33;4.93;;;10.20;99.90;;;;;;10362647;28;20612;-79
2023/11/05 23:57:12;;;;;;;4.50;4.10;;;10.20;99.90;;;;;;10369732;28;20210;-79
